WXM80 ListenWXM80 Stop

You find our weather info also at:

UK Metoffice

WeatherCloud

Weather Underground

Northeastern Weather Network

AWEKAS

Citizen Weather Observer Program (CWOP)

HAMweather, WeatherForYou, PWS Weather


Weather Underground History page Text

Daily Summary for January 13, 2017 Units:  Both    English   Metric
« Previous Day
Next Day »
Daily Weekly Monthly Yearly Custom
  High: Low: Average:
Temperature: 60.4 °F /  15.8 °C 31.1 °F /  -0.5 °C 45.4 °F /  7.4 °C
Dew Point: 54.5 °F /  12.5 °C 17.6 °F /  -8 °C 34.3 °F /  1.3 °C
Humidity: 85 % 46 % 66 %
Wind Speed: 10.5 mph /  16.9 km/h - 5.8 mph /  9.3 km/h
Wind Gust: 21.9 mph /  35.2 km/h - -
Wind:- - WSW
Pressure: 30.67 in /  1038.5 hPa 30.02 in /  1016.5 hPa -
Precipitation: 0.00 in /  0 mm    
Historical Graphs
 
 
Tabular Data for January 13, 2017
Time Temperature Dew Point Pressure Wind Wind Speed Wind Gust Humidity Rainfall Rate (Hourly)
00:04 60.3 °F /  15.7 °C 53.1 °F /  11.7 °C 30.03 in /  1016.8 hPa SW 6.0 mph /  9.7 km/h 14.0 mph /  22.5 km/h 77 % 0.00 in /  0 mm
00:09 60.3 °F /  15.7 °C 53.1 °F /  11.7 °C 30.02 in /  1016.5 hPa SW 6.0 mph /  9.7 km/h 10.0 mph /  16.1 km/h 77 % 0.00 in /  0 mm
00:14 60.2 °F /  15.7 °C 53.0 °F /  11.7 °C 30.02 in /  1016.5 hPa SW 5.0 mph /  8 km/h 9.0 mph /  14.5 km/h 77 % 0.00 in /  0 mm
00:19 60.1 °F /  15.6 °C 52.9 °F /  11.6 °C 30.03 in /  1016.8 hPa SW 6.0 mph /  9.7 km/h 13.0 mph /  20.9 km/h 77 % 0.00 in /  0 mm
00:24 60.0 °F /  15.6 °C 52.8 °F /  11.6 °C 30.03 in /  1016.8 hPa SW 6.0 mph /  9.7 km/h 10.0 mph /  16.1 km/h 77 % 0.00 in /  0 mm
00:29 59.9 °F /  15.5 °C 53.0 °F /  11.7 °C 30.03 in /  1016.8 hPa SW 5.0 mph /  8 km/h 10.0 mph /  16.1 km/h 78 % 0.00 in /  0 mm
00:34 59.9 °F /  15.5 °C 53.0 °F /  11.7 °C 30.04 in /  1017.2 hPa SW 3.0 mph /  4.8 km/h 12.0 mph /  19.3 km/h 78 % 0.00 in /  0 mm
00:39 59.8 °F /  15.4 °C 52.9 °F /  11.6 °C 30.03 in /  1016.8 hPa SW 3.0 mph /  4.8 km/h 10.0 mph /  16.1 km/h 78 % 0.00 in /  0 mm
00:44 59.8 °F /  15.4 °C 52.9 °F /  11.6 °C 30.04 in /  1017.2 hPa SW 3.0 mph /  4.8 km/h 9.0 mph /  14.5 km/h 78 % 0.00 in /  0 mm
00:49 59.8 °F /  15.4 °C 53.3 °F /  11.8 °C 30.04 in /  1017.2 hPa SW 5.0 mph /  8 km/h 12.0 mph /  19.3 km/h 79 % 0.00 in /  0 mm
00:54 59.9 °F /  15.5 °C 53.4 °F /  11.9 °C 30.04 in /  1017.2 hPa SW 5.0 mph /  8 km/h 8.0 mph /  12.9 km/h 79 % 0.00 in /  0 mm
00:59 60.0 °F /  15.6 °C 53.8 °F /  12.1 °C 30.04 in /  1017.2 hPa SW 3.2 mph /  5.1 km/h 8.1 mph /  13 km/h 80 % 0.00 in /  0 mm
01:04 60.1 °F /  15.6 °C 53.9 °F /  12.2 °C 30.04 in /  1017.2 hPa WSW 6.2 mph /  10 km/h 10.4 mph /  16.7 km/h 80 % 0.00 in /  0 mm
01:09 60.2 °F /  15.7 °C 54.0 °F /  12.2 °C 30.05 in /  1017.5 hPa West 5.6 mph /  9 km/h 8.1 mph /  13 km/h 80 % 0.00 in /  0 mm
01:14 60.3 °F /  15.7 °C 54.1 °F /  12.3 °C 30.05 in /  1017.5 hPa SW 3.9 mph /  6.3 km/h 9.2 mph /  14.8 km/h 80 % 0.00 in /  0 mm
01:19 60.3 °F /  15.7 °C 54.1 °F /  12.3 °C 30.05 in /  1017.5 hPa WSW 5.3 mph /  8.5 km/h 8.0 mph /  12.9 km/h 80 % 0.00 in /  0 mm
01:24 60.4 °F /  15.8 °C 54.2 °F /  12.3 °C 30.05 in /  1017.5 hPa WSW 6.5 mph /  10.5 km/h 9.2 mph /  14.8 km/h 80 % 0.00 in /  0 mm
01:29 60.4 °F /  15.8 °C 54.2 °F /  12.3 °C 30.05 in /  1017.5 hPa SW 2.5 mph /  4 km/h 3.5 mph /  5.6 km/h 80 % 0.00 in /  0 mm
01:34 60.4 °F /  15.8 °C 54.2 °F /  12.3 °C 30.06 in /  1017.8 hPa WSW 6.8 mph /  10.9 km/h 12.7 mph /  20.4 km/h 80 % 0.00 in /  0 mm
01:39 60.4 °F /  15.8 °C 54.5 °F /  12.5 °C 30.06 in /  1017.8 hPa WSW 4.3 mph /  6.9 km/h 6.0 mph /  9.7 km/h 81 % 0.00 in /  0 mm
01:45 60.4 °F /  15.8 °C 54.5 °F /  12.5 °C 30.06 in /  1017.8 hPa WSW 3.2 mph /  5.1 km/h 5.8 mph /  9.3 km/h 81 % 0.00 in /  0 mm
01:50 60.3 °F /  15.7 °C 54.4 °F /  12.4 °C 30.07 in /  1018.2 hPa West 3.7 mph /  6 km/h 8.1 mph /  13 km/h 81 % 0.00 in /  0 mm
01:55 60.2 °F /  15.7 °C 54.3 °F /  12.4 °C 30.07 in /  1018.2 hPa SW 3.4 mph /  5.5 km/h 10.4 mph /  16.7 km/h 81 % 0.00 in /  0 mm
02:00 60.0 °F /  15.6 °C 54.2 °F /  12.3 °C 30.07 in /  1018.2 hPa WSW 5.4 mph /  8.7 km/h 9.2 mph /  14.8 km/h 81 % 0.00 in /  0 mm
02:05 59.8 °F /  15.4 °C 54.0 °F /  12.2 °C 30.07 in /  1018.2 hPa WSW 3.1 mph /  5 km/h 9.2 mph /  14.8 km/h 81 % 0.00 in /  0 mm
02:10 59.7 °F /  15.4 °C 54.2 °F /  12.3 °C 30.07 in /  1018.2 hPa West 4.5 mph /  7.2 km/h 11.5 mph /  18.5 km/h 82 % 0.00 in /  0 mm
02:15 59.5 °F /  15.3 °C 54.0 °F /  12.2 °C 30.08 in /  1018.5 hPa SSW 1.4 mph /  2.3 km/h 11.5 mph /  18.5 km/h 82 % 0.00 in /  0 mm
02:20 59.4 °F /  15.2 °C 54.2 °F /  12.3 °C 30.08 in /  1018.5 hPa WSW 5.5 mph /  8.9 km/h 10.4 mph /  16.7 km/h 83 % 0.00 in /  0 mm
02:25 59.3 °F /  15.2 °C 54.1 °F /  12.3 °C 30.08 in /  1018.5 hPa WSW 8.0 mph /  12.9 km/h 11.5 mph /  18.5 km/h 83 % 0.00 in /  0 mm
02:30 59.1 °F /  15.1 °C 53.9 °F /  12.2 °C 30.08 in /  1018.5 hPa West 4.6 mph /  7.4 km/h 8.1 mph /  13 km/h 83 % 0.00 in /  0 mm
02:35 59.0 °F /  15 °C 53.8 °F /  12.1 °C 30.08 in /  1018.5 hPa SW 6.3 mph /  10.1 km/h 11.5 mph /  18.5 km/h 83 % 0.00 in /  0 mm
02:40 58.8 °F /  14.9 °C 53.6 °F /  12 °C 30.09 in /  1018.8 hPa WSW 3.3 mph /  5.3 km/h 4.6 mph /  7.4 km/h 83 % 0.00 in /  0 mm
02:45 58.6 °F /  14.8 °C 53.5 °F /  11.9 °C 30.09 in /  1018.8 hPa SW 4.6 mph /  7.4 km/h 10.4 mph /  16.7 km/h 83 % 0.00 in /  0 mm
02:50 58.4 °F /  14.7 °C 53.6 °F /  12 °C 30.09 in /  1018.8 hPa WSW 5.5 mph /  8.9 km/h 8.1 mph /  13 km/h 84 % 0.00 in /  0 mm
02:55 58.3 °F /  14.6 °C 53.5 °F /  11.9 °C 30.09 in /  1018.8 hPa West 4.3 mph /  6.9 km/h 9.2 mph /  14.8 km/h 84 % 0.00 in /  0 mm
03:00 58.2 °F /  14.6 °C 53.4 °F /  11.9 °C 30.09 in /  1018.8 hPa WSW 4.0 mph /  6.4 km/h 12.0 mph /  19.3 km/h 84 % 0.00 in /  0 mm
03:06 58.1 °F /  14.5 °C 53.6 °F /  12 °C 30.09 in /  1018.8 hPa SW 7.4 mph /  11.9 km/h 11.5 mph /  18.5 km/h 85 % 0.00 in /  0 mm
03:11 58.1 °F /  14.5 °C 53.6 °F /  12 °C 30.09 in /  1018.8 hPa WSW 5.6 mph /  9 km/h 9.2 mph /  14.8 km/h 85 % 0.00 in /  0 mm
03:16 58.0 °F /  14.4 °C 53.5 °F /  11.9 °C 30.09 in /  1018.8 hPa West 2.3 mph /  3.7 km/h 5.0 mph /  8 km/h 85 % 0.00 in /  0 mm
03:21 57.9 °F /  14.4 °C 53.4 °F /  11.9 °C 30.09 in /  1018.8 hPa WSW 6.3 mph /  10.1 km/h 9.2 mph /  14.8 km/h 85 % 0.00 in /  0 mm
03:26 57.8 °F /  14.3 °C 53.3 °F /  11.8 °C 30.10 in /  1019.2 hPa SW 4.1 mph /  6.6 km/h 10.0 mph /  16.1 km/h 85 % 0.00 in /  0 mm
03:31 57.8 °F /  14.3 °C 53.3 °F /  11.8 °C 30.10 in /  1019.2 hPa West 2.5 mph /  4 km/h 8.0 mph /  12.9 km/h 85 % 0.00 in /  0 mm
03:36 57.7 °F /  14.3 °C 53.2 °F /  11.8 °C 30.09 in /  1018.8 hPa SW 2.8 mph /  4.5 km/h 8.0 mph /  12.9 km/h 85 % 0.00 in /  0 mm
03:41 57.5 °F /  14.2 °C 53.0 °F /  11.7 °C 30.09 in /  1018.8 hPa West 4.2 mph /  6.8 km/h 8.0 mph /  12.9 km/h 85 % 0.00 in /  0 mm
03:46 57.3 °F /  14.1 °C 52.8 °F /  11.6 °C 30.10 in /  1019.2 hPa WSW 3.8 mph /  6.1 km/h 8.1 mph /  13 km/h 85 % 0.00 in /  0 mm
03:51 57.1 °F /  13.9 °C 52.6 °F /  11.4 °C 30.10 in /  1019.2 hPa West 1.1 mph /  1.8 km/h 7.0 mph /  11.3 km/h 85 % 0.00 in /  0 mm
03:56 57.0 °F /  13.9 °C 52.5 °F /  11.4 °C 30.10 in /  1019.2 hPa WNW 2.9 mph /  4.7 km/h 5.8 mph /  9.3 km/h 85 % 0.00 in /  0 mm
04:01 56.8 °F /  13.8 °C 52.3 °F /  11.3 °C 30.10 in /  1019.2 hPa SW 3.8 mph /  6.1 km/h 5.8 mph /  9.3 km/h 85 % 0.00 in /  0 mm
04:06 56.7 °F /  13.7 °C 52.2 °F /  11.2 °C 30.11 in /  1019.5 hPa West 2.0 mph /  3.2 km/h 7.0 mph /  11.3 km/h 85 % 0.00 in /  0 mm
04:11 56.5 °F /  13.6 °C 52.0 °F /  11.1 °C 30.11 in /  1019.5 hPa WSW 2.6 mph /  4.2 km/h 5.0 mph /  8 km/h 85 % 0.00 in /  0 mm
04:16 56.3 °F /  13.5 °C 51.8 °F /  11 °C 30.11 in /  1019.5 hPa WSW 2.0 mph /  3.2 km/h 3.5 mph /  5.6 km/h 85 % 0.00 in /  0 mm
04:21 56.1 °F /  13.4 °C 51.3 °F /  10.7 °C 30.12 in /  1019.9 hPa WSW 2.0 mph /  3.2 km/h 5.8 mph /  9.3 km/h 84 % 0.00 in /  0 mm
04:26 55.8 °F /  13.2 °C 51.0 °F /  10.6 °C 30.12 in /  1019.9 hPa WSW 3.8 mph /  6.1 km/h 6.9 mph /  11.1 km/h 84 % 0.00 in /  0 mm
04:31 55.6 °F /  13.1 °C 50.5 °F /  10.3 °C 30.13 in /  1020.2 hPa WNW 3.6 mph /  5.8 km/h 5.8 mph /  9.3 km/h 83 % 0.00 in /  0 mm
04:36 55.5 °F /  13.1 °C 49.8 °F /  9.9 °C 30.13 in /  1020.2 hPa WNW 5.3 mph /  8.5 km/h 10.0 mph /  16.1 km/h 81 % 0.00 in /  0 mm
04:41 55.5 °F /  13.1 °C 49.4 °F /  9.7 °C 30.13 in /  1020.2 hPa SW 6.2 mph /  10 km/h 11.5 mph /  18.5 km/h 80 % 0.00 in /  0 mm
04:46 55.6 °F /  13.1 °C 49.2 °F /  9.6 °C 30.13 in /  1020.2 hPa SW 7.2 mph /  11.6 km/h 10.4 mph /  16.7 km/h 79 % 0.00 in /  0 mm
04:52 55.7 °F /  13.2 °C 49.3 °F /  9.6 °C 30.14 in /  1020.5 hPa West 6.8 mph /  10.9 km/h 9.2 mph /  14.8 km/h 79 % 0.00 in /  0 mm
04:57 55.7 °F /  13.2 °C 48.9 °F /  9.4 °C 30.15 in /  1020.9 hPa NW 5.2 mph /  8.4 km/h 6.9 mph /  11.1 km/h 78 % 0.00 in /  0 mm
05:02 55.6 °F /  13.1 °C 48.8 °F /  9.3 °C 30.15 in /  1020.9 hPa WNW 3.4 mph /  5.5 km/h 4.0 mph /  6.4 km/h 78 % 0.00 in /  0 mm
05:07 55.4 °F /  13 °C 48.7 °F /  9.3 °C 30.15 in /  1020.9 hPa WSW 3.6 mph /  5.8 km/h 5.0 mph /  8 km/h 78 % 0.00 in /  0 mm
05:12 55.1 °F /  12.8 °C 48.4 °F /  9.1 °C 30.16 in /  1021.2 hPa WNW 4.0 mph /  6.4 km/h 6.9 mph /  11.1 km/h 78 % 0.00 in /  0 mm
05:17 54.9 °F /  12.7 °C 48.2 °F /  9 °C 30.16 in /  1021.2 hPa West 4.5 mph /  7.2 km/h 11.5 mph /  18.5 km/h 78 % 0.00 in /  0 mm
05:22 54.4 °F /  12.4 °C 47.3 °F /  8.5 °C 30.17 in /  1021.6 hPa West 5.5 mph /  8.9 km/h 9.2 mph /  14.8 km/h 77 % 0.00 in /  0 mm
05:27 53.7 °F /  12.1 °C 46.7 °F /  8.2 °C 30.18 in /  1021.9 hPa NNW 3.9 mph /  6.3 km/h 6.9 mph /  11.1 km/h 77 % 0.00 in /  0 mm
05:32 52.7 °F /  11.5 °C 45.7 °F /  7.6 °C 30.18 in /  1021.9 hPa NW 5.1 mph /  8.2 km/h 10.4 mph /  16.7 km/h 77 % 0.00 in /  0 mm
05:37 51.9 °F /  11.1 °C 45.3 °F /  7.4 °C 30.19 in /  1022.2 hPa NW 3.5 mph /  5.6 km/h 8.1 mph /  13 km/h 78 % 0.00 in /  0 mm
05:42 51.2 °F /  10.7 °C 44.9 °F /  7.2 °C 30.19 in /  1022.2 hPa West 2.7 mph /  4.3 km/h 8.1 mph /  13 km/h 79 % 0.00 in /  0 mm
05:47 50.6 °F /  10.3 °C 44.3 °F /  6.8 °C 30.19 in /  1022.2 hPa WNW 3.0 mph /  4.8 km/h 4.6 mph /  7.4 km/h 79 % 0.00 in /  0 mm
05:52 49.9 °F /  9.9 °C 44.0 °F /  6.7 °C 30.20 in /  1022.6 hPa WNW 3.6 mph /  5.8 km/h 10.4 mph /  16.7 km/h 80 % 0.00 in /  0 mm
05:57 49.4 °F /  9.7 °C 43.8 °F /  6.6 °C 30.20 in /  1022.6 hPa WNW 2.8 mph /  4.5 km/h 6.0 mph /  9.7 km/h 81 % 0.00 in /  0 mm
06:02 48.9 °F /  9.4 °C 43.3 °F /  6.3 °C 30.21 in /  1022.9 hPa West 4.5 mph /  7.2 km/h 13.0 mph /  20.9 km/h 81 % 0.00 in /  0 mm
06:08 48.4 °F /  9.1 °C 43.2 °F /  6.2 °C 30.21 in /  1022.9 hPa WNW 4.9 mph /  7.9 km/h 9.0 mph /  14.5 km/h 82 % 0.00 in /  0 mm
06:13 48.1 °F /  8.9 °C 42.5 °F /  5.8 °C 30.21 in /  1022.9 hPa NW 4.5 mph /  7.2 km/h 9.2 mph /  14.8 km/h 81 % 0.00 in /  0 mm
06:18 47.9 °F /  8.8 °C 42.7 °F /  5.9 °C 30.22 in /  1023.2 hPa NW 2.3 mph /  3.7 km/h 5.8 mph /  9.3 km/h 82 % 0.00 in /  0 mm
06:23 47.7 °F /  8.7 °C 42.2 °F /  5.7 °C 30.23 in /  1023.6 hPa West 4.8 mph /  7.7 km/h 6.9 mph /  11.1 km/h 81 % 0.00 in /  0 mm
06:28 47.5 °F /  8.6 °C 42.0 °F /  5.6 °C 30.23 in /  1023.6 hPa North 3.1 mph /  5 km/h 8.0 mph /  12.9 km/h 81 % 0.00 in /  0 mm
06:33 47.3 °F /  8.5 °C 41.8 °F /  5.4 °C 30.24 in /  1023.9 hPa NNW 3.4 mph /  5.5 km/h 6.9 mph /  11.1 km/h 81 % 0.00 in /  0 mm
06:38 47.0 °F /  8.3 °C 41.5 °F /  5.3 °C 30.25 in /  1024.3 hPa WSW 2.5 mph /  4 km/h 3.5 mph /  5.6 km/h 81 % 0.00 in /  0 mm
06:43 46.9 °F /  8.3 °C 41.4 °F /  5.2 °C 30.25 in /  1024.3 hPa West 3.7 mph /  6 km/h 5.8 mph /  9.3 km/h 81 % 0.00 in /  0 mm
06:48 46.8 °F /  8.2 °C 41.3 °F /  5.2 °C 30.26 in /  1024.6 hPa WNW 5.6 mph /  9 km/h 9.2 mph /  14.8 km/h 81 % 0.00 in /  0 mm
06:53 46.7 °F /  8.2 °C 40.9 °F /  4.9 °C 30.25 in /  1024.3 hPa WNW 3.0 mph /  4.8 km/h 9.2 mph /  14.8 km/h 80 % 0.00 in /  0 mm
06:58 46.6 °F /  8.1 °C 40.4 °F /  4.7 °C 30.26 in /  1024.6 hPa WNW 8.8 mph /  14.2 km/h 15.0 mph /  24.1 km/h 79 % 0.00 in /  0 mm
07:03 46.7 °F /  8.2 °C 40.2 °F /  4.6 °C 30.26 in /  1024.6 hPa WNW 1.2 mph /  1.9 km/h 3.5 mph /  5.6 km/h 78 % 0.00 in /  0 mm
07:08 46.7 °F /  8.2 °C 40.2 °F /  4.6 °C 30.26 in /  1024.6 hPa NW 4.3 mph /  6.9 km/h 6.9 mph /  11.1 km/h 78 % 0.00 in /  0 mm
07:13 46.6 °F /  8.1 °C 39.8 °F /  4.3 °C 30.26 in /  1024.6 hPa WNW 3.5 mph /  5.6 km/h 7.0 mph /  11.3 km/h 77 % 0.00 in /  0 mm
07:19 46.5 °F /  8.1 °C 39.7 °F /  4.3 °C 30.26 in /  1024.6 hPa NW 5.6 mph /  9 km/h 12.0 mph /  19.3 km/h 77 % 0.00 in /  0 mm
07:24 46.4 °F /  8 °C 39.2 °F /  4 °C 30.27 in /  1024.9 hPa WNW 4.5 mph /  7.2 km/h 8.1 mph /  13 km/h 76 % 0.00 in /  0 mm
07:29 46.3 °F /  7.9 °C 39.1 °F /  3.9 °C 30.27 in /  1024.9 hPa NW 4.6 mph /  7.4 km/h 8.1 mph /  13 km/h 76 % 0.00 in /  0 mm
07:34 46.1 °F /  7.8 °C 39.0 °F /  3.9 °C 30.28 in /  1025.3 hPa WNW 2.8 mph /  4.5 km/h 6.9 mph /  11.1 km/h 76 % 0.00 in /  0 mm
07:39 45.9 °F /  7.7 °C 38.8 °F /  3.8 °C 30.28 in /  1025.3 hPa NW 6.3 mph /  10.1 km/h 9.2 mph /  14.8 km/h 76 % 0.00 in /  0 mm
07:44 45.7 °F /  7.6 °C 38.6 °F /  3.7 °C 30.28 in /  1025.3 hPa WNW 4.0 mph /  6.4 km/h 6.9 mph /  11.1 km/h 76 % 0.00 in /  0 mm
07:49 45.6 °F /  7.6 °C 38.5 °F /  3.6 °C 30.28 in /  1025.3 hPa NW 2.6 mph /  4.2 km/h 7.0 mph /  11.3 km/h 76 % 0.00 in /  0 mm
07:54 45.5 °F /  7.5 °C 38.4 °F /  3.6 °C 30.29 in /  1025.6 hPa WNW 5.0 mph /  8 km/h 12.0 mph /  19.3 km/h 76 % 0.00 in /  0 mm
07:59 45.4 °F /  7.4 °C 37.6 °F /  3.1 °C 30.29 in /  1025.6 hPa WSW 5.8 mph /  9.3 km/h 10.4 mph /  16.7 km/h 74 % 0.00 in /  0 mm
08:04 45.4 °F /  7.4 °C 37.6 °F /  3.1 °C 30.30 in /  1026 hPa WNW 6.2 mph /  10 km/h 10.4 mph /  16.7 km/h 74 % 0.00 in /  0 mm
08:09 45.4 °F /  7.4 °C 37.6 °F /  3.1 °C 30.30 in /  1026 hPa NNW 5.4 mph /  8.7 km/h 10.4 mph /  16.7 km/h 74 % 0.00 in /  0 mm
08:14 45.4 °F /  7.4 °C 37.2 °F /  2.9 °C 30.30 in /  1026 hPa NW 6.2 mph /  10 km/h 11.5 mph /  18.5 km/h 73 % 0.00 in /  0 mm
08:19 45.5 °F /  7.5 °C 37.3 °F /  2.9 °C 30.30 in /  1026 hPa NNW 1.8 mph /  2.9 km/h 6.9 mph /  11.1 km/h 73 % 0.00 in /  0 mm
08:24 45.5 °F /  7.5 °C 37.3 °F /  2.9 °C 30.31 in /  1026.3 hPa West 6.9 mph /  11.1 km/h 12.7 mph /  20.4 km/h 73 % 0.00 in /  0 mm
08:29 45.5 °F /  7.5 °C 37.3 °F /  2.9 °C 30.32 in /  1026.6 hPa NW 5.7 mph /  9.2 km/h 10.0 mph /  16.1 km/h 73 % 0.00 in /  0 mm
08:32 45.4 °F /  7.4 °C 37.2 °F /  2.9 °C 30.32 in /  1026.6 hPa WNW 8.1 mph /  13 km/h 13.8 mph /  22.2 km/h 73 % 0.00 in /  0 mm
08:37 45.4 °F /  7.4 °C 37.2 °F /  2.9 °C 30.32 in /  1026.6 hPa NNW 4.3 mph /  6.9 km/h 9.2 mph /  14.8 km/h 73 % 0.00 in /  0 mm
08:42 45.4 °F /  7.4 °C 37.2 °F /  2.9 °C 30.32 in /  1026.6 hPa WNW 6.1 mph /  9.8 km/h 11.5 mph /  18.5 km/h 73 % 0.00 in /  0 mm
08:47 45.4 °F /  7.4 °C 37.2 °F /  2.9 °C 30.32 in /  1026.6 hPa WNW 3.8 mph /  6.1 km/h 7.0 mph /  11.3 km/h 73 % 0.00 in /  0 mm
08:52 45.4 °F /  7.4 °C 37.2 °F /  2.9 °C 30.33 in /  1027 hPa NW 4.7 mph /  7.6 km/h 10.4 mph /  16.7 km/h 73 % 0.00 in /  0 mm
08:57 45.4 °F /  7.4 °C 37.2 °F /  2.9 °C 30.33 in /  1027 hPa WNW 5.8 mph /  9.3 km/h 9.2 mph /  14.8 km/h 73 % 0.00 in /  0 mm
09:02 45.4 °F /  7.4 °C 36.9 °F /  2.7 °C 30.33 in /  1027 hPa WNW 8.8 mph /  14.2 km/h 13.0 mph /  20.9 km/h 72 % 0.00 in /  0 mm
09:08 45.4 °F /  7.4 °C 36.9 °F /  2.7 °C 30.33 in /  1027 hPa WNW 1.8 mph /  2.9 km/h 9.2 mph /  14.8 km/h 72 % 0.00 in /  0 mm
09:13 45.4 °F /  7.4 °C 36.9 °F /  2.7 °C 30.33 in /  1027 hPa NNE 6.1 mph /  9.8 km/h 9.0 mph /  14.5 km/h 72 % 0.00 in /  0 mm
09:18 45.5 °F /  7.5 °C 36.6 °F /  2.6 °C 30.34 in /  1027.3 hPa WNW 6.7 mph /  10.8 km/h 15.0 mph /  24.1 km/h 71 % 0.00 in /  0 mm
09:23 45.6 °F /  7.6 °C 36.4 °F /  2.4 °C 30.34 in /  1027.3 hPa WNW 6.9 mph /  11.1 km/h 13.0 mph /  20.9 km/h 70 % 0.00 in /  0 mm
09:28 45.8 °F /  7.7 °C 36.2 °F /  2.3 °C 30.34 in /  1027.3 hPa WNW 1.3 mph /  2.1 km/h 6.9 mph /  11.1 km/h 69 % 0.00 in /  0 mm
09:33 46.0 °F /  7.8 °C 36.4 °F /  2.4 °C 30.34 in /  1027.3 hPa West 2.2 mph /  3.5 km/h 7.0 mph /  11.3 km/h 69 % 0.00 in /  0 mm
09:38 46.2 °F /  7.9 °C 36.6 °F /  2.6 °C 30.34 in /  1027.3 hPa NW 1.3 mph /  2.1 km/h 3.5 mph /  5.6 km/h 69 % 0.00 in /  0 mm
09:43 46.5 °F /  8.1 °C 36.5 °F /  2.5 °C 30.34 in /  1027.3 hPa WNW 7.0 mph /  11.3 km/h 11.5 mph /  18.5 km/h 68 % 0.00 in /  0 mm
09:48 46.7 °F /  8.2 °C 36.7 °F /  2.6 °C 30.35 in /  1027.7 hPa WNW 6.3 mph /  10.1 km/h 11.5 mph /  18.5 km/h 68 % 0.00 in /  0 mm
09:53 46.7 °F /  8.2 °C 36.7 °F /  2.6 °C 30.35 in /  1027.7 hPa WNW 6.5 mph /  10.5 km/h 11.0 mph /  17.7 km/h 68 % 0.00 in /  0 mm
09:58 46.8 °F /  8.2 °C 36.8 °F /  2.7 °C 30.35 in /  1027.7 hPa NW 6.8 mph /  10.9 km/h 12.7 mph /  20.4 km/h 68 % 0.00 in /  0 mm
10:03 46.9 °F /  8.3 °C 36.9 °F /  2.7 °C 30.36 in /  1028 hPa NW 4.6 mph /  7.4 km/h 9.2 mph /  14.8 km/h 68 % 0.00 in /  0 mm
10:13 46.9 °F /  8.3 °C 35.7 °F /  2.1 °C 30.36 in /  1028 hPa NW 4.3 mph /  6.9 km/h 10.4 mph /  16.7 km/h 65 % 0.00 in /  0 mm
10:18 47.0 °F /  8.3 °C 35.4 °F /  1.9 °C 30.36 in /  1028 hPa NNW 7.2 mph /  11.6 km/h 15.0 mph /  24.1 km/h 64 % 0.00 in /  0 mm
10:24 47.0 °F /  8.3 °C 35.0 °F /  1.7 °C 30.36 in /  1028 hPa NW 7.0 mph /  11.3 km/h 11.5 mph /  18.5 km/h 63 % 0.00 in /  0 mm
10:29 47.0 °F /  8.3 °C 35.4 °F /  1.9 °C 30.36 in /  1028 hPa WNW 7.9 mph /  12.7 km/h 11.5 mph /  18.5 km/h 64 % 0.00 in /  0 mm
10:34 47.0 °F /  8.3 °C 35.4 °F /  1.9 °C 30.36 in /  1028 hPa WSW 5.2 mph /  8.4 km/h 6.0 mph /  9.7 km/h 64 % 0.00 in /  0 mm
10:39 47.2 °F /  8.4 °C 35.2 °F /  1.8 °C 30.36 in /  1028 hPa NW 1.6 mph /  2.6 km/h 3.5 mph /  5.6 km/h 63 % 0.00 in /  0 mm
10:44 47.3 °F /  8.5 °C 35.3 °F /  1.8 °C 30.37 in /  1028.3 hPa NW 2.9 mph /  4.7 km/h 6.9 mph /  11.1 km/h 63 % 0.00 in /  0 mm
10:49 47.4 °F /  8.6 °C 35.0 °F /  1.7 °C 30.36 in /  1028 hPa NW 6.4 mph /  10.3 km/h 11.5 mph /  18.5 km/h 62 % 0.00 in /  0 mm
10:54 47.5 °F /  8.6 °C 35.1 °F /  1.7 °C 30.36 in /  1028 hPa NW 4.1 mph /  6.6 km/h 9.2 mph /  14.8 km/h 62 % 0.00 in /  0 mm
10:59 47.6 °F /  8.7 °C 35.2 °F /  1.8 °C 30.36 in /  1028 hPa NW 3.9 mph /  6.3 km/h 10.4 mph /  16.7 km/h 62 % 0.00 in /  0 mm
11:04 47.6 °F /  8.7 °C 34.8 °F /  1.6 °C 30.36 in /  1028 hPa NW 5.1 mph /  8.2 km/h 11.5 mph /  18.5 km/h 61 % 0.00 in /  0 mm
11:09 47.4 °F /  8.6 °C 34.2 °F /  1.2 °C 30.36 in /  1028 hPa WNW 6.6 mph /  10.6 km/h 18.4 mph /  29.6 km/h 60 % 0.00 in /  0 mm
11:14 47.2 °F /  8.4 °C 32.3 °F /  0.2 °C 30.36 in /  1028 hPa WNW 8.8 mph /  14.2 km/h 15.0 mph /  24.1 km/h 56 % 0.00 in /  0 mm
11:19 47.0 °F /  8.3 °C 31.2 °F /  -0.4 °C 30.36 in /  1028 hPa WNW 3.2 mph /  5.1 km/h 12.7 mph /  20.4 km/h 54 % 0.00 in /  0 mm
11:24 46.7 °F /  8.2 °C 30.9 °F /  -0.6 °C 30.36 in /  1028 hPa WNW 8.2 mph /  13.2 km/h 11.5 mph /  18.5 km/h 54 % 0.00 in /  0 mm
11:29 46.5 °F /  8.1 °C 31.2 °F /  -0.4 °C 30.36 in /  1028 hPa NW 8.0 mph /  12.9 km/h 11.5 mph /  18.5 km/h 55 % 0.00 in /  0 mm
11:34 46.4 °F /  8 °C 30.6 °F /  -0.8 °C 30.36 in /  1028 hPa NW 6.4 mph /  10.3 km/h 10.4 mph /  16.7 km/h 54 % 0.00 in /  0 mm
11:40 46.3 °F /  7.9 °C 31.0 °F /  -0.6 °C 30.36 in /  1028 hPa NW 6.4 mph /  10.3 km/h 10.4 mph /  16.7 km/h 55 % 0.00 in /  0 mm
11:45 46.2 °F /  7.9 °C 30.5 °F /  -0.8 °C 30.36 in /  1028 hPa NW 6.9 mph /  11.1 km/h 11.5 mph /  18.5 km/h 54 % 0.00 in /  0 mm
11:50 46.1 °F /  7.8 °C 31.3 °F /  -0.4 °C 30.36 in /  1028 hPa North 6.4 mph /  10.3 km/h 11.5 mph /  18.5 km/h 56 % 0.00 in /  0 mm
11:55 46.1 °F /  7.8 °C 31.3 °F /  -0.4 °C 30.36 in /  1028 hPa WNW 4.4 mph /  7.1 km/h 11.5 mph /  18.5 km/h 56 % 0.00 in /  0 mm
12:00 46.0 °F /  7.8 °C 32.0 °F /  0 °C 30.37 in /  1028.3 hPa WNW 3.9 mph /  6.3 km/h 11.5 mph /  18.5 km/h 58 % 0.00 in /  0 mm
12:05 46.0 °F /  7.8 °C 31.2 °F /  -0.4 °C 30.37 in /  1028.3 hPa NNE 7.4 mph /  11.9 km/h 13.8 mph /  22.2 km/h 56 % 0.00 in /  0 mm
12:06 45.9 °F /  7.7 °C 30.6 °F /  -0.8 °C 30.37 in /  1028.3 hPa NW 9.6 mph /  15.4 km/h 11.5 mph /  18.5 km/h 55 % 0.00 in /  0 mm
12:11 45.9 °F /  7.7 °C 29.7 °F /  -1.3 °C 30.37 in /  1028.3 hPa NW 8.6 mph /  13.8 km/h 21.9 mph /  35.2 km/h 53 % 0.00 in /  0 mm
12:16 45.9 °F /  7.7 °C 30.2 °F /  -1 °C 30.37 in /  1028.3 hPa NNW 6.0 mph /  9.7 km/h 10.4 mph /  16.7 km/h 54 % 0.00 in /  0 mm
12:21 46.0 °F /  7.8 °C 28.4 °F /  -2 °C 30.37 in /  1028.3 hPa North 8.6 mph /  13.8 km/h 17.3 mph /  27.8 km/h 50 % 0.00 in /  0 mm
12:26 46.0 °F /  7.8 °C 28.9 °F /  -1.7 °C 30.37 in /  1028.3 hPa NNW 7.7 mph /  12.4 km/h 19.6 mph /  31.5 km/h 51 % 0.00 in /  0 mm
12:31 46.1 °F /  7.8 °C 29.0 °F /  -1.7 °C 30.37 in /  1028.3 hPa NW 5.0 mph /  8 km/h 11.5 mph /  18.5 km/h 51 % 0.00 in /  0 mm
12:36 46.2 °F /  7.9 °C 29.1 °F /  -1.6 °C 30.37 in /  1028.3 hPa West 6.0 mph /  9.7 km/h 11.5 mph /  18.5 km/h 51 % 0.00 in /  0 mm
12:41 46.3 °F /  7.9 °C 29.1 °F /  -1.6 °C 30.37 in /  1028.3 hPa WSW 6.1 mph /  9.8 km/h 10.4 mph /  16.7 km/h 51 % 0.00 in /  0 mm
12:46 46.3 °F /  7.9 °C 28.7 °F /  -1.8 °C 30.37 in /  1028.3 hPa NNW 6.8 mph /  10.9 km/h 13.0 mph /  20.9 km/h 50 % 0.00 in /  0 mm
12:51 46.4 °F /  8 °C 28.8 °F /  -1.8 °C 30.37 in /  1028.3 hPa North 4.7 mph /  7.6 km/h 15.0 mph /  24.1 km/h 50 % 0.00 in /  0 mm
12:56 46.3 °F /  7.9 °C 29.1 °F /  -1.6 °C 30.38 in /  1028.7 hPa WNW 6.4 mph /  10.3 km/h 16.1 mph /  25.9 km/h 51 % 0.00 in /  0 mm
13:02 46.3 °F /  7.9 °C 29.1 °F /  -1.6 °C 30.38 in /  1028.7 hPa WNW 10.5 mph /  16.9 km/h 15.0 mph /  24.1 km/h 51 % 0.00 in /  0 mm
13:07 46.1 °F /  7.8 °C 28.5 °F /  -1.9 °C 30.38 in /  1028.7 hPa NW 10.2 mph /  16.4 km/h 15.0 mph /  24.1 km/h 50 % 0.00 in /  0 mm
13:12 46.0 °F /  7.8 °C 27.4 °F /  -2.6 °C 30.38 in /  1028.7 hPa West 9.1 mph /  14.6 km/h 15.0 mph /  24.1 km/h 48 % 0.00 in /  0 mm
13:17 45.9 °F /  7.7 °C 28.3 °F /  -2.1 °C 30.38 in /  1028.7 hPa WNW 9.4 mph /  15.1 km/h 13.8 mph /  22.2 km/h 50 % 0.00 in /  0 mm
13:22 45.8 °F /  7.7 °C 28.2 °F /  -2.1 °C 30.39 in /  1029 hPa NW 9.0 mph /  14.5 km/h 13.0 mph /  20.9 km/h 50 % 0.00 in /  0 mm
13:27 45.8 °F /  7.7 °C 28.7 °F /  -1.8 °C 30.39 in /  1029 hPa NW 6.2 mph /  10 km/h 12.7 mph /  20.4 km/h 51 % 0.00 in /  0 mm
13:32 45.8 °F /  7.7 °C 27.7 °F /  -2.4 °C 30.39 in /  1029 hPa NNW 6.5 mph /  10.5 km/h 13.8 mph /  22.2 km/h 49 % 0.00 in /  0 mm
13:37 45.9 °F /  7.7 °C 27.8 °F /  -2.3 °C 30.39 in /  1029 hPa WNW 8.7 mph /  14 km/h 19.6 mph /  31.5 km/h 49 % 0.00 in /  0 mm
13:42 45.8 °F /  7.7 °C 27.7 °F /  -2.4 °C 30.39 in /  1029 hPa West 5.7 mph /  9.2 km/h 10.4 mph /  16.7 km/h 49 % 0.00 in /  0 mm
13:47 45.8 °F /  7.7 °C 26.2 °F /  -3.2 °C 30.39 in /  1029 hPa WNW 9.8 mph /  15.8 km/h 15.0 mph /  24.1 km/h 46 % 0.00 in /  0 mm
13:52 45.6 °F /  7.6 °C 26.0 °F /  -3.3 °C 30.40 in /  1029.3 hPa West 7.0 mph /  11.3 km/h 11.5 mph /  18.5 km/h 46 % 0.00 in /  0 mm
13:57 45.6 °F /  7.6 °C 27.5 °F /  -2.5 °C 30.40 in /  1029.3 hPa WSW 7.3 mph /  11.7 km/h 11.5 mph /  18.5 km/h 49 % 0.00 in /  0 mm
14:02 45.6 °F /  7.6 °C 27.0 °F /  -2.8 °C 30.40 in /  1029.3 hPa WNW 6.6 mph /  10.6 km/h 14.0 mph /  22.5 km/h 48 % 0.00 in /  0 mm
14:08 45.5 °F /  7.5 °C 26.9 °F /  -2.8 °C 30.41 in /  1029.7 hPa NNW 8.7 mph /  14 km/h 13.0 mph /  20.9 km/h 48 % 0.00 in /  0 mm
14:13 45.4 °F /  7.4 °C 27.3 °F /  -2.6 °C 30.41 in /  1029.7 hPa NW 7.8 mph /  12.6 km/h 12.7 mph /  20.4 km/h 49 % 0.00 in /  0 mm
14:18 45.3 °F /  7.4 °C 27.2 °F /  -2.7 °C 30.41 in /  1029.7 hPa WNW 7.3 mph /  11.7 km/h 12.0 mph /  19.3 km/h 49 % 0.00 in /  0 mm
14:23 45.2 °F /  7.3 °C 28.1 °F /  -2.2 °C 30.41 in /  1029.7 hPa WNW 9.0 mph /  14.5 km/h 12.7 mph /  20.4 km/h 51 % 0.00 in /  0 mm
14:28 44.9 °F /  7.2 °C 27.4 °F /  -2.6 °C 30.42 in /  1030 hPa West 5.7 mph /  9.2 km/h 12.7 mph /  20.4 km/h 50 % 0.00 in /  0 mm
14:33 44.6 °F /  7 °C 27.1 °F /  -2.7 °C 30.42 in /  1030 hPa WNW 7.1 mph /  11.4 km/h 13.8 mph /  22.2 km/h 50 % 0.00 in /  0 mm
14:38 44.3 °F /  6.8 °C 26.3 °F /  -3.2 °C 30.42 in /  1030 hPa WNW 9.0 mph /  14.5 km/h 15.0 mph /  24.1 km/h 49 % 0.00 in /  0 mm
14:43 44.0 °F /  6.7 °C 26.0 °F /  -3.3 °C 30.42 in /  1030 hPa West 10.5 mph /  16.9 km/h 18.4 mph /  29.6 km/h 49 % 0.00 in /  0 mm
14:48 43.8 °F /  6.6 °C 26.3 °F /  -3.2 °C 30.42 in /  1030 hPa WNW 10.5 mph /  16.9 km/h 16.1 mph /  25.9 km/h 50 % 0.00 in /  0 mm
14:53 43.7 °F /  6.5 °C 26.3 °F /  -3.2 °C 30.43 in /  1030.4 hPa NW 7.5 mph /  12.1 km/h 13.8 mph /  22.2 km/h 50 % 0.00 in /  0 mm
14:58 43.6 °F /  6.4 °C 26.2 °F /  -3.2 °C 30.43 in /  1030.4 hPa NW 7.8 mph /  12.6 km/h 12.7 mph /  20.4 km/h 50 % 0.00 in /  0 mm
15:03 43.4 °F /  6.3 °C 26.0 °F /  -3.3 °C 30.44 in /  1030.7 hPa NW 5.7 mph /  9.2 km/h 10.4 mph /  16.7 km/h 50 % 0.00 in /  0 mm
15:08 43.3 °F /  6.3 °C 26.4 °F /  -3.1 °C 30.44 in /  1030.7 hPa North 5.9 mph /  9.5 km/h 11.5 mph /  18.5 km/h 51 % 0.00 in /  0 mm
15:14 43.2 °F /  6.2 °C 26.7 °F /  -2.9 °C 30.44 in /  1030.7 hPa NNW 2.9 mph /  4.7 km/h 8.1 mph /  13 km/h 52 % 0.00 in /  0 mm
15:19 43.1 °F /  6.2 °C 26.2 °F /  -3.2 °C 30.44 in /  1030.7 hPa NW 5.1 mph /  8.2 km/h 12.0 mph /  19.3 km/h 51 % 0.00 in /  0 mm
15:24 42.9 °F /  6.1 °C 26.5 °F /  -3.1 °C 30.44 in /  1030.7 hPa WNW 2.3 mph /  3.7 km/h 6.9 mph /  11.1 km/h 52 % 0.00 in /  0 mm
15:29 42.9 °F /  6.1 °C 26.9 °F /  -2.8 °C 30.45 in /  1031 hPa West 3.1 mph /  5 km/h 9.2 mph /  14.8 km/h 53 % 0.00 in /  0 mm
15:34 42.8 °F /  6 °C 26.4 °F /  -3.1 °C 30.45 in /  1031 hPa West 4.8 mph /  7.7 km/h 9.2 mph /  14.8 km/h 52 % 0.00 in /  0 mm
15:39 42.7 °F /  5.9 °C 27.6 °F /  -2.4 °C 30.45 in /  1031 hPa WNW 2.0 mph /  3.2 km/h 12.0 mph /  19.3 km/h 55 % 0.00 in /  0 mm
15:44 42.5 °F /  5.8 °C 27.0 °F /  -2.8 °C 30.45 in /  1031 hPa WNW 5.4 mph /  8.7 km/h 9.2 mph /  14.8 km/h 54 % 0.00 in /  0 mm
15:49 42.4 °F /  5.8 °C 26.9 °F /  -2.8 °C 30.46 in /  1031.4 hPa NW 3.0 mph /  4.8 km/h 8.0 mph /  12.9 km/h 54 % 0.00 in /  0 mm
15:54 42.3 °F /  5.7 °C 26.4 °F /  -3.1 °C 30.46 in /  1031.4 hPa WNW 4.2 mph /  6.8 km/h 9.2 mph /  14.8 km/h 53 % 0.00 in /  0 mm
15:59 42.2 °F /  5.7 °C 26.7 °F /  -2.9 °C 30.47 in /  1031.7 hPa West 2.1 mph /  3.4 km/h 6.9 mph /  11.1 km/h 54 % 0.00 in /  0 mm
16:04 42.1 °F /  5.6 °C 26.6 °F /  -3 °C 30.47 in /  1031.7 hPa West 5.3 mph /  8.5 km/h 11.5 mph /  18.5 km/h 54 % 0.00 in /  0 mm
16:09 42.0 °F /  5.6 °C 26.1 °F /  -3.3 °C 30.47 in /  1031.7 hPa West 5.4 mph /  8.7 km/h 11.5 mph /  18.5 km/h 53 % 0.00 in /  0 mm
16:14 41.9 °F /  5.5 °C 27.3 °F /  -2.6 °C 30.47 in /  1031.7 hPa WNW 3.8 mph /  6.1 km/h 10.4 mph /  16.7 km/h 56 % 0.00 in /  0 mm
16:19 41.8 °F /  5.4 °C 27.7 °F /  -2.4 °C 30.47 in /  1031.7 hPa NNW 3.1 mph /  5 km/h 5.8 mph /  9.3 km/h 57 % 0.00 in /  0 mm
16:24 41.6 °F /  5.3 °C 26.6 °F /  -3 °C 30.47 in /  1031.7 hPa NNW 4.4 mph /  7.1 km/h 11.5 mph /  18.5 km/h 55 % 0.00 in /  0 mm
16:29 41.5 °F /  5.3 °C 27.0 °F /  -2.8 °C 30.48 in /  1032.1 hPa WNW 7.4 mph /  11.9 km/h 11.5 mph /  18.5 km/h 56 % 0.00 in /  0 mm
16:34 41.3 °F /  5.2 °C 26.8 °F /  -2.9 °C 30.48 in /  1032.1 hPa West 5.5 mph /  8.9 km/h 11.5 mph /  18.5 km/h 56 % 0.00 in /  0 mm
16:39 41.2 °F /  5.1 °C 27.1 °F /  -2.7 °C 30.48 in /  1032.1 hPa NW 4.2 mph /  6.8 km/h 8.1 mph /  13 km/h 57 % 0.00 in /  0 mm
16:44 41.1 °F /  5.1 °C 26.6 °F /  -3 °C 30.49 in /  1032.4 hPa WNW 6.6 mph /  10.6 km/h 10.4 mph /  16.7 km/h 56 % 0.00 in /  0 mm
16:49 41.0 °F /  5 °C 27.3 °F /  -2.6 °C 30.49 in /  1032.4 hPa NNW 3.0 mph /  4.8 km/h 8.1 mph /  13 km/h 58 % 0.00 in /  0 mm
16:54 40.9 °F /  4.9 °C 27.7 °F /  -2.4 °C 30.50 in /  1032.7 hPa NW 3.6 mph /  5.8 km/h 10.4 mph /  16.7 km/h 59 % 0.00 in /  0 mm
17:00 40.7 °F /  4.8 °C 27.9 °F /  -2.3 °C 30.50 in /  1032.7 hPa WNW 3.5 mph /  5.6 km/h 9.2 mph /  14.8 km/h 60 % 0.00 in /  0 mm
17:05 40.6 °F /  4.8 °C 28.2 °F /  -2.1 °C 30.50 in /  1032.7 hPa NW 6.3 mph /  10.1 km/h 11.5 mph /  18.5 km/h 61 % 0.00 in /  0 mm
17:10 40.4 °F /  4.7 °C 27.2 °F /  -2.7 °C 30.50 in /  1032.7 hPa NW 6.0 mph /  9.7 km/h 10.4 mph /  16.7 km/h 59 % 0.00 in /  0 mm
17:15 40.3 °F /  4.6 °C 27.5 °F /  -2.5 °C 30.51 in /  1033.1 hPa NNW 4.9 mph /  7.9 km/h 8.1 mph /  13 km/h 60 % 0.00 in /  0 mm
17:20 40.2 °F /  4.6 °C 27.0 °F /  -2.8 °C 30.51 in /  1033.1 hPa NNW 5.9 mph /  9.5 km/h 8.1 mph /  13 km/h 59 % 0.00 in /  0 mm
17:25 40.1 °F /  4.5 °C 26.5 °F /  -3.1 °C 30.51 in /  1033.1 hPa WNW 3.0 mph /  4.8 km/h 6.9 mph /  11.1 km/h 58 % 0.00 in /  0 mm
17:30 40.0 °F /  4.4 °C 26.8 °F /  -2.9 °C 30.51 in /  1033.1 hPa NW 4.3 mph /  6.9 km/h 6.9 mph /  11.1 km/h 59 % 0.00 in /  0 mm
17:35 39.9 °F /  4.4 °C 27.1 °F /  -2.7 °C 30.52 in /  1033.4 hPa North 3.4 mph /  5.5 km/h 5.8 mph /  9.3 km/h 60 % 0.00 in /  0 mm
17:40 39.7 °F /  4.3 °C 25.7 °F /  -3.5 °C 30.52 in /  1033.4 hPa NW 4.7 mph /  7.6 km/h 10.4 mph /  16.7 km/h 57 % 0.00 in /  0 mm
17:45 39.6 °F /  4.2 °C 26.0 °F /  -3.3 °C 30.53 in /  1033.7 hPa NW 7.3 mph /  11.7 km/h 11.5 mph /  18.5 km/h 58 % 0.00 in /  0 mm
17:50 39.5 °F /  4.2 °C 25.5 °F /  -3.6 °C 30.53 in /  1033.7 hPa North 3.8 mph /  6.1 km/h 9.0 mph /  14.5 km/h 57 % 0.00 in /  0 mm
17:55 39.4 °F /  4.1 °C 25.4 °F /  -3.7 °C 30.53 in /  1033.7 hPa NNE 5.7 mph /  9.2 km/h 9.2 mph /  14.8 km/h 57 % 0.00 in /  0 mm
18:00 39.3 °F /  4.1 °C 25.7 °F /  -3.5 °C 30.54 in /  1034.1 hPa NNW 6.4 mph /  10.3 km/h 9.2 mph /  14.8 km/h 58 % 0.00 in /  0 mm
18:05 39.1 °F /  3.9 °C 25.1 °F /  -3.8 °C 30.54 in /  1034.1 hPa NNE 5.4 mph /  8.7 km/h 11.5 mph /  18.5 km/h 57 % 0.00 in /  0 mm
18:11 38.9 °F /  3.8 °C 24.5 °F /  -4.2 °C 30.55 in /  1034.4 hPa North 6.2 mph /  10 km/h 6.2 mph /  10 km/h 56 % 0.00 in /  0 mm
18:16 38.7 °F /  3.7 °C 23.9 °F /  -4.5 °C 30.56 in /  1034.8 hPa NNW 8.9 mph /  14.3 km/h 13.0 mph /  20.9 km/h 55 % 0.00 in /  0 mm
18:21 38.5 °F /  3.6 °C 22.8 °F /  -5.1 °C 30.56 in /  1034.8 hPa North 6.1 mph /  9.8 km/h 11.5 mph /  18.5 km/h 53 % 0.00 in /  0 mm
18:26 38.3 °F /  3.5 °C 23.5 °F /  -4.7 °C 30.56 in /  1034.8 hPa West 5.2 mph /  8.4 km/h 9.2 mph /  14.8 km/h 55 % 0.00 in /  0 mm
18:31 38.2 °F /  3.4 °C 23.9 °F /  -4.5 °C 30.56 in /  1034.8 hPa North 3.8 mph /  6.1 km/h 11.5 mph /  18.5 km/h 56 % 0.00 in /  0 mm
18:36 38.1 °F /  3.4 °C 24.2 °F /  -4.3 °C 30.56 in /  1034.8 hPa NNE 7.6 mph /  12.2 km/h 11.5 mph /  18.5 km/h 57 % 0.00 in /  0 mm
18:41 37.9 °F /  3.3 °C 24.8 °F /  -4 °C 30.57 in /  1035.1 hPa NNE 9.1 mph /  14.6 km/h 10.0 mph /  16.1 km/h 59 % 0.00 in /  0 mm
18:46 37.5 °F /  3.1 °C 24.5 °F /  -4.2 °C 30.57 in /  1035.1 hPa North 7.1 mph /  11.4 km/h 11.5 mph /  18.5 km/h 59 % 0.00 in /  0 mm
18:51 37.3 °F /  2.9 °C 23.9 °F /  -4.5 °C 30.57 in /  1035.1 hPa North 9.8 mph /  15.8 km/h 13.8 mph /  22.2 km/h 58 % 0.00 in /  0 mm
18:56 37.0 °F /  2.8 °C 24.0 °F /  -4.4 °C 30.57 in /  1035.1 hPa NNE 7.0 mph /  11.3 km/h 10.4 mph /  16.7 km/h 59 % 0.00 in /  0 mm
19:01 36.8 °F /  2.7 °C 23.4 °F /  -4.8 °C 30.57 in /  1035.1 hPa NNW 8.9 mph /  14.3 km/h 11.0 mph /  17.7 km/h 58 % 0.00 in /  0 mm
19:06 36.6 °F /  2.6 °C 23.2 °F /  -4.9 °C 30.57 in /  1035.1 hPa North 8.4 mph /  13.5 km/h 12.7 mph /  20.4 km/h 58 % 0.00 in /  0 mm
19:11 36.5 °F /  2.5 °C 23.5 °F /  -4.7 °C 30.57 in /  1035.1 hPa North 5.3 mph /  8.5 km/h 9.2 mph /  14.8 km/h 59 % 0.00 in /  0 mm
19:16 36.3 °F /  2.4 °C 23.3 °F /  -4.8 °C 30.58 in /  1035.4 hPa NNE 9.8 mph /  15.8 km/h 12.7 mph /  20.4 km/h 59 % 0.00 in /  0 mm
19:21 36.1 °F /  2.3 °C 23.1 °F /  -4.9 °C 30.58 in /  1035.4 hPa NE 5.3 mph /  8.5 km/h 9.0 mph /  14.5 km/h 59 % 0.00 in /  0 mm
19:26 35.9 °F /  2.2 °C 23.0 °F /  -5 °C 30.58 in /  1035.4 hPa North 5.5 mph /  8.9 km/h 10.4 mph /  16.7 km/h 59 % 0.00 in /  0 mm
19:31 35.8 °F /  2.1 °C 22.9 °F /  -5.1 °C 30.59 in /  1035.8 hPa North 8.1 mph /  13 km/h 11.5 mph /  18.5 km/h 59 % 0.00 in /  0 mm
19:36 35.6 °F /  2 °C 22.3 °F /  -5.4 °C 30.59 in /  1035.8 hPa NNE 7.8 mph /  12.6 km/h 12.7 mph /  20.4 km/h 58 % 0.00 in /  0 mm
19:42 35.4 °F /  1.9 °C 22.5 °F /  -5.3 °C 30.59 in /  1035.8 hPa North 8.8 mph /  14.2 km/h 11.5 mph /  18.5 km/h 59 % 0.00 in /  0 mm
19:47 35.3 °F /  1.8 °C 22.4 °F /  -5.3 °C 30.59 in /  1035.8 hPa NNE 8.6 mph /  13.8 km/h 13.0 mph /  20.9 km/h 59 % 0.00 in /  0 mm
19:52 35.2 °F /  1.8 °C 21.9 °F /  -5.6 °C 30.60 in /  1036.1 hPa NNW 8.7 mph /  14 km/h 11.5 mph /  18.5 km/h 58 % 0.00 in /  0 mm
19:57 35.1 °F /  1.7 °C 22.2 °F /  -5.4 °C 30.60 in /  1036.1 hPa NNE 10.3 mph /  16.6 km/h 15.0 mph /  24.1 km/h 59 % 0.00 in /  0 mm
20:02 35.0 °F /  1.7 °C 22.1 °F /  -5.5 °C 30.60 in /  1036.1 hPa NNE 9.3 mph /  15 km/h 13.0 mph /  20.9 km/h 59 % 0.00 in /  0 mm
20:07 34.9 °F /  1.6 °C 21.6 °F /  -5.8 °C 30.60 in /  1036.1 hPa NNE 10.0 mph /  16.1 km/h 17.3 mph /  27.8 km/h 58 % 0.00 in /  0 mm
20:12 34.7 °F /  1.5 °C 21.0 °F /  -6.1 °C 30.60 in /  1036.1 hPa North 9.2 mph /  14.8 km/h 15.0 mph /  24.1 km/h 57 % 0.00 in /  0 mm
20:17 34.6 °F /  1.4 °C 21.3 °F /  -5.9 °C 30.60 in /  1036.1 hPa NNW 9.1 mph /  14.6 km/h 15.0 mph /  24.1 km/h 58 % 0.00 in /  0 mm
20:22 34.5 °F /  1.4 °C 21.6 °F /  -5.8 °C 30.62 in /  1036.8 hPa North 7.2 mph /  11.6 km/h 12.0 mph /  19.3 km/h 59 % 0.00 in /  0 mm
20:27 34.4 °F /  1.3 °C 21.9 °F /  -5.6 °C 30.62 in /  1036.8 hPa North 5.6 mph /  9 km/h 10.4 mph /  16.7 km/h 60 % 0.00 in /  0 mm
20:32 34.4 °F /  1.3 °C 22.3 °F /  -5.4 °C 30.62 in /  1036.8 hPa NNE 6.8 mph /  10.9 km/h 11.5 mph /  18.5 km/h 61 % 0.00 in /  0 mm
20:37 34.3 °F /  1.3 °C 21.8 °F /  -5.7 °C 30.62 in /  1036.8 hPa NNE 9.1 mph /  14.6 km/h 16.1 mph /  25.9 km/h 60 % 0.00 in /  0 mm
20:42 34.1 °F /  1.2 °C 21.3 °F /  -5.9 °C 30.62 in /  1036.8 hPa North 8.1 mph /  13 km/h 12.7 mph /  20.4 km/h 59 % 0.00 in /  0 mm
20:47 34.0 °F /  1.1 °C 20.8 °F /  -6.2 °C 30.62 in /  1036.8 hPa North 10.4 mph /  16.7 km/h 15.0 mph /  24.1 km/h 58 % 0.00 in /  0 mm
20:52 33.9 °F /  1.1 °C 20.7 °F /  -6.3 °C 30.63 in /  1037.1 hPa NNE 6.7 mph /  10.8 km/h 11.5 mph /  18.5 km/h 58 % 0.00 in /  0 mm
20:57 33.8 °F /  1 °C 20.6 °F /  -6.3 °C 30.63 in /  1037.1 hPa NNE 7.6 mph /  12.2 km/h 12.0 mph /  19.3 km/h 58 % 0.00 in /  0 mm
21:02 33.8 °F /  1 °C 20.6 °F /  -6.3 °C 30.63 in /  1037.1 hPa NNE 5.3 mph /  8.5 km/h 10.0 mph /  16.1 km/h 58 % 0.00 in /  0 mm
21:07 33.7 °F /  0.9 °C 20.9 °F /  -6.2 °C 30.63 in /  1037.1 hPa NNE 3.9 mph /  6.3 km/h 6.9 mph /  11.1 km/h 59 % 0.00 in /  0 mm
21:13 33.7 °F /  0.9 °C 21.3 °F /  -5.9 °C 30.63 in /  1037.1 hPa NNE 3.9 mph /  6.3 km/h 9.2 mph /  14.8 km/h 60 % 0.00 in /  0 mm
21:18 33.6 °F /  0.9 °C 21.2 °F /  -6 °C 30.64 in /  1037.5 hPa North 5.5 mph /  8.9 km/h 10.4 mph /  16.7 km/h 60 % 0.00 in /  0 mm
21:23 33.5 °F /  0.8 °C 21.1 °F /  -6.1 °C 30.64 in /  1037.5 hPa North 4.8 mph /  7.7 km/h 12.7 mph /  20.4 km/h 60 % 0.00 in /  0 mm
21:28 33.4 °F /  0.8 °C 20.6 °F /  -6.3 °C 30.64 in /  1037.5 hPa NNE 10.2 mph /  16.4 km/h 15.0 mph /  24.1 km/h 59 % 0.00 in /  0 mm
21:33 33.3 °F /  0.7 °C 20.5 °F /  -6.4 °C 30.64 in /  1037.5 hPa NNE 9.4 mph /  15.1 km/h 11.5 mph /  18.5 km/h 59 % 0.00 in /  0 mm
21:38 33.2 °F /  0.7 °C 20.8 °F /  -6.2 °C 30.64 in /  1037.5 hPa NNE 8.7 mph /  14 km/h 17.3 mph /  27.8 km/h 60 % 0.00 in /  0 mm
21:43 33.1 °F /  0.6 °C 19.9 °F /  -6.7 °C 30.64 in /  1037.5 hPa North 8.4 mph /  13.5 km/h 12.7 mph /  20.4 km/h 58 % 0.00 in /  0 mm
21:48 33.0 °F /  0.6 °C 20.2 °F /  -6.6 °C 30.64 in /  1037.5 hPa North 7.0 mph /  11.3 km/h 12.7 mph /  20.4 km/h 59 % 0.00 in /  0 mm
21:53 32.9 °F /  0.5 °C 20.1 °F /  -6.6 °C 30.64 in /  1037.5 hPa North 8.4 mph /  13.5 km/h 11.5 mph /  18.5 km/h 59 % 0.00 in /  0 mm
21:58 32.8 °F /  0.4 °C 20.4 °F /  -6.4 °C 30.64 in /  1037.5 hPa NNE 7.3 mph /  11.7 km/h 10.0 mph /  16.1 km/h 60 % 0.00 in /  0 mm
22:03 32.8 °F /  0.4 °C 20.0 °F /  -6.7 °C 30.65 in /  1037.8 hPa NNE 8.8 mph /  14.2 km/h 12.7 mph /  20.4 km/h 59 % 0.00 in /  0 mm
22:08 32.6 °F /  0.3 °C 19.8 °F /  -6.8 °C 30.65 in /  1037.8 hPa NE 9.7 mph /  15.6 km/h 12.7 mph /  20.4 km/h 59 % 0.00 in /  0 mm
22:13 32.5 °F /  0.3 °C 19.3 °F /  -7.1 °C 30.65 in /  1037.8 hPa NE 7.0 mph /  11.3 km/h 11.5 mph /  18.5 km/h 58 % 0.00 in /  0 mm
22:18 32.4 °F /  0.2 °C 19.7 °F /  -6.8 °C 30.66 in /  1038.1 hPa NNE 6.8 mph /  10.9 km/h 9.2 mph /  14.8 km/h 59 % 0.00 in /  0 mm
22:24 32.4 °F /  0.2 °C 19.7 °F /  -6.8 °C 30.65 in /  1037.8 hPa NNW 8.6 mph /  13.8 km/h 11.5 mph /  18.5 km/h 59 % 0.00 in /  0 mm
22:29 32.3 °F /  0.2 °C 19.2 °F /  -7.1 °C 30.65 in /  1037.8 hPa NNE 7.2 mph /  11.6 km/h 10.0 mph /  16.1 km/h 58 % 0.00 in /  0 mm
22:34 32.2 °F /  0.1 °C 19.1 °F /  -7.2 °C 30.66 in /  1038.1 hPa North 7.9 mph /  12.7 km/h 11.5 mph /  18.5 km/h 58 % 0.00 in /  0 mm
22:39 32.1 °F /  0.1 °C 19.0 °F /  -7.2 °C 30.65 in /  1037.8 hPa North 8.4 mph /  13.5 km/h 12.7 mph /  20.4 km/h 58 % 0.00 in /  0 mm
22:44 32.1 °F /  0.1 °C 18.6 °F /  -7.4 °C 30.65 in /  1037.8 hPa North 8.1 mph /  13 km/h 11.5 mph /  18.5 km/h 57 % 0.00 in /  0 mm
22:49 32.0 °F /  0 °C 18.5 °F /  -7.5 °C 30.66 in /  1038.1 hPa North 6.9 mph /  11.1 km/h 11.5 mph /  18.5 km/h 57 % 0.00 in /  0 mm
22:54 31.9 °F /  -0.1 °C 18.8 °F /  -7.3 °C 30.66 in /  1038.1 hPa NNE 7.9 mph /  12.7 km/h 11.5 mph /  18.5 km/h 58 % 0.00 in /  0 mm
22:59 31.8 °F /  -0.1 °C 18.3 °F /  -7.6 °C 30.66 in /  1038.1 hPa NNE 9.9 mph /  15.9 km/h 16.1 mph /  25.9 km/h 57 % 0.00 in /  0 mm
23:04 31.8 °F /  -0.1 °C 18.7 °F /  -7.4 °C 30.66 in /  1038.1 hPa NNE 5.8 mph /  9.3 km/h 10.4 mph /  16.7 km/h 58 % 0.00 in /  0 mm
23:09 31.7 °F /  -0.2 °C 18.2 °F /  -7.7 °C 30.65 in /  1037.8 hPa NNE 6.5 mph /  10.5 km/h 10.0 mph /  16.1 km/h 57 % 0.00 in /  0 mm
23:14 31.6 °F /  -0.2 °C 18.1 °F /  -7.7 °C 30.66 in /  1038.1 hPa North 4.3 mph /  6.9 km/h 10.4 mph /  16.7 km/h 57 % 0.00 in /  0 mm
23:19 31.5 °F /  -0.3 °C 18.0 °F /  -7.8 °C 30.66 in /  1038.1 hPa North 7.0 mph /  11.3 km/h 13.0 mph /  20.9 km/h 57 % 0.00 in /  0 mm
23:24 31.4 °F /  -0.3 °C 18.3 °F /  -7.6 °C 30.65 in /  1037.8 hPa NNE 4.4 mph /  7.1 km/h 11.5 mph /  18.5 km/h 58 % 0.00 in /  0 mm
23:29 31.4 °F /  -0.3 °C 17.9 °F /  -7.8 °C 30.66 in /  1038.1 hPa NNE 7.0 mph /  11.3 km/h 12.0 mph /  19.3 km/h 57 % 0.00 in /  0 mm
23:34 31.3 °F /  -0.4 °C 18.2 °F /  -7.7 °C 30.66 in /  1038.1 hPa NNE 8.0 mph /  12.9 km/h 12.0 mph /  19.3 km/h 58 % 0.00 in /  0 mm
23:39 31.2 °F /  -0.4 °C 18.5 °F /  -7.5 °C 30.66 in /  1038.1 hPa NNE 7.0 mph /  11.3 km/h 12.0 mph /  19.3 km/h 59 % 0.00 in /  0 mm
23:44 31.2 °F /  -0.4 °C 17.7 °F /  -7.9 °C 30.66 in /  1038.1 hPa NNE 9.0 mph /  14.5 km/h 14.0 mph /  22.5 km/h 57 % 0.00 in /  0 mm
23:49 31.1 °F /  -0.5 °C 17.6 °F /  -8 °C 30.66 in /  1038.1 hPa NNE 7.3 mph /  11.7 km/h 12.7 mph /  20.4 km/h 57 % 0.00 in /  0 mm
23:54 31.1 °F /  -0.5 °C 17.6 °F /  -8 °C 30.66 in /  1038.1 hPa North 8.0 mph /  12.9 km/h 14.0 mph /  22.5 km/h 57 % 0.00 in /  0 mm
23:59 31.1 °F /  -0.5 °C 18.0 °F /  -7.8 °C 30.67 in /  1038.5 hPa North 7.2 mph /  11.6 km/h 9.2 mph /  14.8 km/h 58 % 0.00 in /  0 mm
Crab Meadow Weather
Compliments of Weather Underground - 3 mb

Script developed by  Jim McMurry - jmcmurry@mwt.net Adapted for the template by  Wim van der Kuil - Leuven-Template.eu

Weather Terms: Winter Storm Warning - Hazardous winter weather conditions that pose a threat to life and/or property are occurring, imminent or likely. The generic term, winter storm warning, is used for a combination of two or more of the following winter weather events; heavy snow, freezing rain, sleet and strong winds.